createdAt,value
2023-01-01T00:00:53.275Z,99474.81
2023-01-01T00:03:21.955Z,99473.03
2023-01-01T00:05:50.610Z,99469.66
2023-01-01T00:08:19.236Z,99472.34
2023-01-01T00:10:47.835Z,99471.44
2023-01-01T00:13:16.516Z,99474.09
2023-01-01T00:15:45.184Z,99481.69
2023-01-01T00:18:15.245Z,99485.19
2023-01-01T00:20:43.877Z,99484.34
2023-01-01T00:23:12.927Z,99482.75
2023-01-01T00:25:41.998Z,99484.47
2023-01-01T00:28:10.664Z,99482.75
2023-01-01T00:30:42.315Z,99488.81
2023-01-01T00:33:12.944Z,99490.56
2023-01-01T00:35:42.987Z,99491.50
2023-01-01T00:38:11.645Z,99492.28
2023-01-01T00:40:40.241Z,99489.06
2023-01-01T00:43:08.858Z,99481.22
2023-01-01T00:45:37.623Z,99486.34
2023-01-01T00:48:06.852Z,99487.28
2023-01-01T00:50:35.475Z,99479.47
2023-01-01T00:53:05.452Z,99484.59
2023-01-01T00:55:34.124Z,99481.34
2023-01-01T00:58:02.751Z,99479.59
2023-01-01T01:00:31.476Z,99481.34
2023-01-01T01:03:00.401Z,99481.34
2023-01-01T01:05:29.193Z,99483.06
2023-01-01T01:07:57.835Z,99482.16
2023-01-01T01:10:28.060Z,99478.88
2023-01-01T01:12:57.098Z,99488.22
2023-01-01T01:15:25.903Z,99478.88
2023-01-01T01:17:54.627Z,99484.97
2023-01-01T01:20:23.335Z,99477.25
2023-01-01T01:22:52.164Z,99478.06
2023-01-01T01:25:20.815Z,99468.72
2023-01-01T01:27:50.785Z,99474.69
2023-01-01T01:30:19.719Z,99480.75
2023-01-01T01:32:48.486Z,99476.41
2023-01-01T01:35:17.320Z,99480.75
2023-01-01T01:37:46.016Z,99484.25
2023-01-01T01:40:17.565Z,99484.25
2023-01-01T01:42:50.315Z,99490.22
2023-01-01T01:45:19.978Z,99505.69
2023-01-01T01:47:55.759Z,99492.88
2023-01-01T01:50:28.520Z,99496.28
2023-01-01T01:53:06.261Z,99489.50
2023-01-01T01:55:39.600Z,99489.50
2023-01-01T01:58:13.002Z,99498.94
2023-01-01T02:00:42.136Z,99484.47
2023-01-01T02:03:15.204Z,99496.38
2023-01-01T02:05:45.650Z,99498.13
2023-01-01T02:08:15.906Z,99498.00
2023-01-01T02:10:45.131Z,99485.16
2023-01-01T02:13:16.145Z,99496.38
2023-01-01T02:15:54.223Z,99491.25
2023-01-01T02:18:28.551Z,99481.00
2023-01-01T02:21:06.203Z,99488.69
2023-01-01T02:24:22.283Z,99486.25
2023-01-01T02:27:00.182Z,99495.66
2023-01-01T02:29:42.076Z,99484.47
2023-01-01T02:32:14.099Z,99498.25
2023-01-01T02:34:48.227Z,99496.50
2023-01-01T02:37:19.918Z,99493.09
2023-01-01T02:39:54.236Z,99494.75
2023-01-01T02:42:27.732Z,99494.75
2023-01-01T02:45:00.625Z,99488.81
2023-01-01T02:47:29.456Z,99490.41
2023-01-01T02:50:05.344Z,99498.13
2023-01-01T02:53:08.587Z,99506.78
2023-01-01T02:55:51.324Z,99516.31
2023-01-01T02:58:46.496Z,99512.00
2023-01-01T03:01:24.378Z,99523.22
2023-01-01T03:04:03.438Z,99533.50
2023-01-01T03:06:41.246Z,99536.06
2023-01-01T03:09:18.944Z,99531.72
2023-01-01T03:11:58.520Z,99528.34
2023-01-01T03:14:38.164Z,99540.34
2023-01-01T03:17:12.033Z,99541.19
2023-01-01T03:19:43.329Z,99538.63
2023-01-01T03:22:15.483Z,99542.00
2023-01-01T03:24:49.634Z,99539.44
2023-01-01T03:27:26.653Z,99535.09
2023-01-01T03:29:58.675Z,99542.00
2023-01-01T03:32:49.584Z,99544.56
2023-01-01T03:35:21.231Z,99547.13
2023-01-01T03:37:53.130Z,99540.34
2023-01-01T03:40:23.377Z,99543.75
2023-01-01T03:42:55.361Z,99539.53
2023-01-01T03:45:27.912Z,99538.72
2023-01-01T03:47:58.397Z,99544.66
2023-01-01T03:50:41.027Z,99549.81
2023-01-01T03:53:21.043Z,99542.22
2023-01-01T03:56:00.033Z,99541.38
2023-01-01T03:58:36.911Z,99541.38
2023-01-01T04:01:12.185Z,99531.97
2023-01-01T04:03:43.097Z,99532.88
2023-01-01T04:06:13.834Z,99536.25
2023-01-01T04:08:42.495Z,99537.09
2023-01-01T04:11:34.484Z,99552.63
2023-01-01T04:14:03.404Z,99537.28
2023-01-01T04:16:32.318Z,99545.84
2023-01-01T04:19:02.318Z,99548.41
2023-01-01T04:21:30.958Z,99542.53
2023-01-01T04:23:59.579Z,99545.13
2023-01-01T04:26:28.212Z,99551.09
2023-01-01T04:28:56.823Z,99542.53
2023-01-01T04:31:25.484Z,99544.19
2023-01-01T04:33:55.426Z,99535.69
2023-01-01T04:36:25.404Z,99534.84
2023-01-01T04:38:54.059Z,99539.97
2023-01-01T04:41:22.702Z,99533.25
2023-01-01T04:43:51.714Z,99548.50
2023-01-01T04:46:22.180Z,99543.50
2023-01-01T04:48:51.678Z,99547.78
2023-01-01T04:51:22.535Z,99550.25
2023-01-01T04:53:52.602Z,99553.78
2023-01-01T04:56:22.620Z,99559.72
2023-01-01T04:58:51.602Z,99541.84
2023-01-01T05:01:24.421Z,99554.56
2023-01-01T05:03:53.725Z,99549.56
2023-01-01T05:06:23.264Z,99559.81
2023-01-01T05:08:57.442Z,99564.84
2023-01-01T05:11:28.501Z,99564.97
2023-01-01T05:13:59.893Z,99566.59
2023-01-01T05:16:32.295Z,99571.81
2023-01-01T05:19:01.598Z,99565.88
2023-01-01T05:21:32.761Z,99567.53
2023-01-01T05:24:05.912Z,99570.19
2023-01-01T05:26:38.301Z,99565.88
2023-01-01T05:29:15.545Z,99570.19
2023-01-01T05:31:45.765Z,99584.75
2023-01-01T05:34:15.663Z,99573.69
2023-01-01T05:36:44.554Z,99579.63
2023-01-01T05:39:14.791Z,99588.16
2023-01-01T05:41:43.697Z,99591.53
2023-01-01T05:44:12.796Z,99583.84
2023-01-01T05:46:41.613Z,99595.03
2023-01-01T05:49:12.852Z,99593.31
2023-01-01T05:56:39.610Z,99603.69
2023-01-01T05:59:08.279Z,99593.41
2023-01-01T06:01:43.478Z,99593.41
2023-01-01T06:04:14.846Z,99606.25
2023-01-01T06:06:43.733Z,99607.06
2023-01-01T06:09:12.861Z,99617.44
2023-01-01T06:11:42.882Z,99602.84
2023-01-01T06:14:11.491Z,99608.81
2023-01-01T06:16:40.200Z,99602.03
2023-01-01T06:19:08.894Z,99605.41
2023-01-01T06:21:37.603Z,99607.97
2023-01-01T06:24:08.474Z,99612.31
2023-01-01T06:26:37.211Z,99609.72
2023-01-01T06:29:07.262Z,99608.91
2023-01-01T06:31:40.679Z,99606.44
2023-01-01T06:34:10.066Z,99613.34
2023-01-01T06:36:38.715Z,99622.69
2023-01-01T06:39:07.544Z,99625.38
2023-01-01T06:41:36.234Z,99638.19
2023-01-01T06:44:06.669Z,99630.50
2023-01-01T06:46:37.272Z,99633.88
2023-01-01T06:49:08.864Z,99628.84
2023-01-01T06:51:40.620Z,99631.41
2023-01-01T06:54:10.115Z,99627.09
2023-01-01T06:56:39.359Z,99636.56
2023-01-01T06:59:09.402Z,99635.72
2023-01-01T07:01:43.923Z,99642.59
2023-01-01T07:04:16.875Z,99661.50
2023-01-01T07:06:45.489Z,99664.06
2023-01-01T07:09:14.218Z,99663.25
2023-01-01T07:11:43.926Z,99666.72
2023-01-01T07:14:13.941Z,99675.28
2023-01-01T07:16:44.960Z,99673.63
2023-01-01T07:19:13.594Z,99686.47
2023-01-01T07:21:47.251Z,99680.47
2023-01-01T07:24:19.071Z,99683.16
2023-01-01T07:26:48.961Z,99676.38
2023-01-01T07:29:19.130Z,99673.81
2023-01-01T07:31:47.766Z,99672.09
2023-01-01T07:34:19.315Z,99666.97
2023-01-01T07:36:48.245Z,99675.56
2023-01-01T07:39:16.868Z,99685.03
2023-01-01T07:41:45.875Z,99694.47
2023-01-01T07:44:15.310Z,99702.03
2023-01-01T07:46:46.714Z,99703.91
2023-01-01T07:49:15.361Z,99709.03
2023-01-01T07:51:44.067Z,99709.84
2023-01-01T07:54:12.720Z,99714.19
2023-01-01T07:56:41.339Z,99719.19
2023-01-01T07:59:10.042Z,99720.97
2023-01-01T08:01:39.302Z,99720.00
2023-01-01T08:04:10.290Z,99726.09
2023-01-01T08:06:39.673Z,99721.75
2023-01-01T08:09:08.651Z,99722.56
2023-01-01T08:11:37.290Z,99718.28
2023-01-01T08:14:06.032Z,99721.66
2023-01-01T08:16:34.752Z,99719.09
2023-01-01T08:19:03.538Z,99717.34
2023-01-01T08:21:33.769Z,99711.28
2023-01-01T08:24:02.392Z,99712.91
2023-01-01T08:26:34.765Z,99707.78
2023-01-01T08:29:06.804Z,99704.41
2023-01-01T08:31:36.301Z,99717.94
2023-01-01T08:34:04.978Z,99710.25
2023-01-01T08:36:35.351Z,99701.63
2023-01-01T08:39:04.023Z,99711.88
2023-01-01T08:41:32.731Z,99710.13
2023-01-01T08:44:02.198Z,99709.22
2023-01-01T08:46:30.922Z,99715.19
2023-01-01T08:48:59.550Z,99721.13
2023-01-01T08:51:28.218Z,99727.06
2023-01-01T08:53:58.242Z,99718.44
2023-01-01T08:56:27.025Z,99716.69
2023-01-01T08:59:01.816Z,99736.28
2023-01-01T09:01:32.922Z,99727.78
2023-01-01T09:04:01.650Z,99739.59
2023-01-01T09:06:30.308Z,99737.84
2023-01-01T09:09:00.369Z,99742.03
2023-01-01T09:11:29.698Z,99745.31
2023-01-01T09:13:58.432Z,99744.50
2023-01-01T09:16:27.554Z,99746.94
2023-01-01T09:18:56.231Z,99743.47
2023-01-01T09:21:24.910Z,99756.31
2023-01-01T09:23:53.559Z,99757.00
2023-01-01T09:26:23.569Z,99762.13
2023-01-01T09:28:52.346Z,99757.84
2023-01-01T09:31:21.097Z,99765.41
2023-01-01T09:33:49.919Z,99775.69
2023-01-01T09:36:31.115Z,99781.63
2023-01-01T09:39:01.004Z,99772.19
2023-01-01T09:41:45.131Z,99781.53
2023-01-01T09:44:27.888Z,99793.53
2023-01-01T09:47:01.266Z,99785.03
2023-01-01T09:49:34.335Z,99794.34
2023-01-01T09:52:05.692Z,99780.59
2023-01-01T09:54:39.523Z,99790.06
2023-01-01T09:57:19.758Z,99786.56
2023-01-01T09:59:48.706Z,99782.25
2023-01-01T10:02:39.530Z,99777.91
2023-01-01T10:05:31.128Z,99772.78
2023-01-01T10:08:09.558Z,99770.22
2023-01-01T10:10:42.430Z,99777.00
2023-01-01T10:13:26.943Z,99769.19
2023-01-01T10:16:00.498Z,99775.97
2023-01-01T10:18:33.518Z,99769.91
2023-01-01T10:21:08.730Z,99768.16
2023-01-01T10:23:44.158Z,99776.66
2023-01-01T10:26:18.000Z,99766.38
2023-01-01T10:28:56.943Z,99764.56
2023-01-01T10:31:33.160Z,99765.47
2023-01-01T10:34:21.496Z,99768.88
2023-01-01T10:36:54.353Z,99769.69
2023-01-01T10:39:23.295Z,99764.56
2023-01-01T10:41:52.773Z,99765.28
2023-01-01T10:44:31.889Z,99771.09
2023-01-01T10:47:06.574Z,99768.53
2023-01-01T10:49:35.232Z,99764.31
2023-01-01T10:52:05.850Z,99761.66
2023-01-01T10:54:37.388Z,99756.44
2023-01-01T10:57:16.285Z,99757.34
2023-01-01T10:59:53.580Z,99740.28
2023-01-01T11:02:25.982Z,99741.03
2023-01-01T11:05:20.760Z,99742.63
2023-01-01T11:07:50.678Z,99756.31
2023-01-01T11:10:25.681Z,99753.63
2023-01-01T11:13:10.075Z,99745.94
2023-01-01T11:15:42.728Z,99744.16
2023-01-01T11:18:17.747Z,99741.50
2023-01-01T11:20:53.806Z,99754.34
2023-01-01T11:23:31.463Z,99756.00
2023-01-01T11:26:05.315Z,99746.53
2023-01-01T11:28:35.769Z,99742.25
2023-01-01T11:31:16.239Z,99740.47
2023-01-01T11:33:49.123Z,99732.78
2023-01-01T11:36:25.930Z,99725.91
2023-01-01T11:39:21.464Z,99726.84
2023-01-01T11:41:52.103Z,99726.84
2023-01-01T11:44:33.406Z,99723.34
2023-01-01T11:47:03.856Z,99719.13
2023-01-01T11:49:32.790Z,99714.81
2023-01-01T11:52:01.909Z,99710.50
2023-01-01T11:54:36.079Z,99713.06
2023-01-01T11:57:13.849Z,99710.50
2023-01-01T11:59:48.570Z,99713.06
2023-01-01T12:02:34.383Z,99707.94
2023-01-01T12:05:15.093Z,99711.44
2023-01-01T12:07:45.661Z,99696.94
2023-01-01T12:10:23.124Z,99693.44
2023-01-01T12:12:59.400Z,99690.88
2023-01-01T12:15:36.450Z,99702.06
2023-01-01T12:18:15.321Z,99701.16
2023-01-01T12:20:50.692Z,99691.81
2023-01-01T12:23:20.598Z,99690.03
2023-01-01T12:26:02.133Z,99696.81
2023-01-01T12:28:40.146Z,99697.75
2023-01-01T12:31:21.189Z,99697.66
2023-01-01T12:34:14.378Z,99701.16
2023-01-01T12:36:52.564Z,99699.41
2023-01-01T12:40:16.085Z,99688.44
2023-01-01T12:42:58.094Z,99691.00
2023-01-01T12:45:56.765Z,99692.72
2023-01-01T12:48:51.554Z,99695.28
2023-01-01T12:51:33.414Z,99688.50
2023-01-01T12:54:35.563Z,99690.25
2023-01-01T12:57:11.429Z,99690.25
2023-01-01T12:59:45.701Z,99688.50
2023-01-01T13:02:20.417Z,99682.53
2023-01-01T13:04:51.940Z,99688.50
2023-01-01T13:07:30.716Z,99685.03
2023-01-01T13:10:11.751Z,99682.47
2023-01-01T13:12:40.779Z,99691.91
2023-01-01T13:15:45.257Z,99679.16
2023-01-01T13:18:34.057Z,99676.59
2023-01-01T13:21:07.345Z,99674.03
2023-01-01T13:23:51.951Z,99670.63
2023-01-01T13:26:34.383Z,99671.47
2023-01-01T13:29:44.273Z,99674.97
2023-01-01T13:32:15.483Z,99669.00
2023-01-01T13:35:03.709Z,99673.31
2023-01-01T13:37:46.302Z,99659.53
2023-01-01T13:40:53.108Z,99665.59
2023-01-01T13:43:29.441Z,99670.75
2023-01-01T13:46:11.748Z,99667.25
2023-01-01T13:49:16.289Z,99673.31
2023-01-01T13:52:07.963Z,99678.44
2023-01-01T13:55:20.943Z,99672.50
2023-01-01T13:58:38.006Z,99669.31
2023-01-01T14:01:43.462Z,99674.47
2023-01-01T14:04:33.328Z,99676.09
2023-01-01T14:07:41.212Z,99672.63
2023-01-01T14:10:25.136Z,99669.31
2023-01-01T14:12:56.149Z,99677.03
2023-01-01T14:15:30.538Z,99671.69
2023-01-01T14:18:01.655Z,99666.56
2023-01-01T14:20:37.674Z,99673.41
2023-01-01T14:23:11.690Z,99665.72
2023-01-01T14:25:43.288Z,99669.94
2023-01-01T14:28:21.357Z,99659.66
2023-01-01T14:30:51.771Z,99659.66
2023-01-01T14:33:26.453Z,99656.28
2023-01-01T14:35:58.169Z,99668.19
2023-01-01T14:38:29.040Z,99657.91
2023-01-01T14:41:18.928Z,99669.94
2023-01-01T14:43:50.281Z,99662.22
2023-01-01T14:46:24.731Z,99670.75
2023-01-01T14:48:57.206Z,99671.69
2023-01-01T14:51:28.482Z,99665.72
2023-01-01T14:54:00.122Z,99675.88
2023-01-01T14:56:31.202Z,99676.81
2023-01-01T14:59:08.467Z,99665.72
2023-01-01T15:01:39.689Z,99668.28
2023-01-01T15:04:22.055Z,99675.19
2023-01-01T15:06:55.926Z,99673.53
2023-01-01T15:09:25.163Z,99676.22
2023-01-01T15:11:54.552Z,99669.22
2023-01-01T15:14:33.598Z,99661.50
2023-01-01T15:17:07.812Z,99658.13
2023-01-01T15:19:37.726Z,99654.88
2023-01-01T15:22:11.859Z,99661.63
2023-01-01T15:24:41.378Z,99663.38
2023-01-01T15:27:24.381Z,99656.50
2023-01-01T15:29:53.460Z,99651.47
2023-01-01T15:32:28.918Z,99647.97
2023-01-01T15:35:00.428Z,99635.16
2023-01-01T15:37:38.738Z,99635.25
2023-01-01T15:40:36.321Z,99623.47
2023-01-01T15:43:22.781Z,99616.69
2023-01-01T15:45:56.102Z,99622.63
2023-01-01T15:48:33.122Z,99621.81
2023-01-01T15:51:08.817Z,99625.31
2023-01-01T15:53:50.726Z,99631.28
2023-01-01T15:56:20.067Z,99633.97
2023-01-01T15:58:56.285Z,99637.34
2023-01-01T16:01:28.314Z,99638.25
2023-01-01T16:04:04.810Z,99638.38
2023-01-01T16:06:33.577Z,99640.13
2023-01-01T16:09:02.215Z,99646.19
2023-01-01T16:11:30.920Z,99632.56
2023-01-01T16:13:59.576Z,99641.97
2023-01-01T16:16:30.729Z,99641.19
2023-01-01T16:19:01.054Z,99642.91
2023-01-01T16:21:33.466Z,99639.53
2023-01-01T16:24:02.278Z,99637.09
2023-01-01T16:26:30.978Z,99637.09
2023-01-01T16:28:59.624Z,99639.66
2023-01-01T16:31:29.077Z,99646.63
2023-01-01T16:34:01.487Z,99645.00
2023-01-01T16:36:30.463Z,99642.44
2023-01-01T16:38:59.662Z,99637.38
2023-01-01T16:41:30.356Z,99629.69
2023-01-01T16:43:59.493Z,99624.69
2023-01-01T16:46:28.503Z,99627.25
2023-01-01T16:48:58.116Z,99627.25
2023-01-01T16:51:31.674Z,99625.63
2023-01-01T16:54:00.973Z,99617.22
2023-01-01T16:56:30.616Z,99613.00
2023-01-01T16:59:03.467Z,99611.38
2023-01-01T17:01:33.122Z,99608.09
2023-01-01T17:04:01.948Z,99614.97
2023-01-01T17:06:32.001Z,99612.53
2023-01-01T17:09:01.555Z,99606.56
2023-01-01T17:11:30.271Z,99597.22
2023-01-01T17:13:59.727Z,99601.53
2023-01-01T17:16:34.458Z,99598.28
2023-01-01T17:19:20.604Z,99599.22
2023-01-01T17:21:51.073Z,99598.50
2023-01-01T17:24:21.710Z,99590.91
2023-01-01T17:26:54.243Z,99584.25
2023-01-01T17:29:23.233Z,99585.16
2023-01-01T17:31:52.083Z,99581.00
2023-01-01T17:34:21.016Z,99577.69
2023-01-01T17:36:51.034Z,99586.31
2023-01-01T17:39:19.649Z,99575.25
2023-01-01T17:41:48.348Z,99568.59
2023-01-01T17:44:16.985Z,99570.34
2023-01-01T17:46:46.424Z,99570.47
2023-01-01T17:49:15.221Z,99568.81
2023-01-01T17:51:44.003Z,99563.81
2023-01-01T17:54:14.256Z,99569.03
2023-01-01T17:56:43.189Z,99569.97
2023-01-01T17:59:12.164Z,99566.56
2023-01-01T18:01:41.085Z,99572.66
2023-01-01T18:04:11.360Z,99576.13
2023-01-01T18:06:43.622Z,99577.88
2023-01-01T18:09:16.462Z,99567.72
2023-01-01T18:11:45.715Z,99559.22
2023-01-01T18:14:17.328Z,99552.44
2023-01-01T18:16:49.750Z,99551.75
2023-01-01T18:19:19.315Z,99547.41
2023-01-01T18:21:48.010Z,99534.72
2023-01-01T18:24:18.291Z,99531.34
2023-01-01T18:26:46.943Z,99530.50
2023-01-01T18:29:15.626Z,99538.19
2023-01-01T18:31:46.567Z,99525.50
2023-01-01T18:34:15.467Z,99523.84
2023-01-01T18:36:47.028Z,99520.47
2023-01-01T18:39:22.833Z,99517.91
2023-01-01T18:42:32.587Z,99509.50
2023-01-01T18:45:16.351Z,99491.66
2023-01-01T18:47:46.455Z,99491.78
2023-01-01T18:50:24.927Z,99501.13
2023-01-01T18:53:07.629Z,99503.69
2023-01-01T18:55:37.710Z,99502.03
2023-01-01T18:58:18.618Z,99490.97
2023-01-01T19:00:49.102Z,99484.91
2023-01-01T19:03:22.981Z,99495.25
2023-01-01T19:05:51.631Z,99497.75
2023-01-01T19:08:22.381Z,99486.66
2023-01-01T19:10:54.862Z,99483.97
2023-01-01T19:13:25.723Z,99475.47
2023-01-01T19:15:56.697Z,99465.22
2023-01-01T19:18:30.668Z,99461.72
2023-01-01T19:21:03.789Z,99466.84
2023-01-01T19:23:32.881Z,99466.84
2023-01-01T19:26:05.685Z,99454.97
2023-01-01T19:28:37.605Z,99461.84
2023-01-01T19:31:08.107Z,99468.69
2023-01-01T19:33:36.892Z,99462.75
2023-01-01T19:36:06.174Z,99461.00
2023-01-01T19:38:34.924Z,99459.28
2023-01-01T19:41:05.039Z,99464.41
2023-01-01T19:43:33.694Z,99465.22
2023-01-01T19:46:02.306Z,99464.41
2023-01-01T19:48:30.987Z,99465.22
2023-01-01T19:50:59.820Z,99457.53
2023-01-01T19:53:28.447Z,99455.75
2023-01-01T19:55:57.240Z,99454.84
2023-01-01T19:58:27.318Z,99447.94
2023-01-01T20:00:56.054Z,99444.47
2023-01-01T20:06:13.844Z,99446.91
2023-01-01T20:08:42.464Z,99451.13
2023-01-01T20:11:11.115Z,99453.69
2023-01-01T20:13:41.187Z,99455.44
2023-01-01T20:16:10.305Z,99458.00
2023-01-01T20:18:38.980Z,99460.56
2023-01-01T20:21:25.905Z,99469.91
2023-01-01T20:23:55.351Z,99458.00
2023-01-01T20:26:25.753Z,99458.00
2023-01-01T20:29:13.263Z,99459.75
2023-01-01T20:31:46.112Z,99472.56
2023-01-01T20:34:14.720Z,99466.63
2023-01-01T20:37:01.035Z,99470.84
2023-01-01T20:39:30.028Z,99471.75
2023-01-01T20:41:58.578Z,99474.31
2023-01-01T20:44:28.683Z,99470.09
2023-01-01T20:46:57.904Z,99477.81
2023-01-01T20:49:26.592Z,99475.25
2023-01-01T20:51:55.614Z,99466.84
2023-01-01T20:54:24.957Z,99471.97
2023-01-01T20:56:53.735Z,99468.47
2023-01-01T20:59:39.017Z,99473.59
2023-01-01T21:02:11.593Z,99470.22
2023-01-01T21:04:41.266Z,99472.78
2023-01-01T21:07:12.469Z,99477.91
2023-01-01T21:09:42.232Z,99470.34
2023-01-01T21:12:11.790Z,99468.69
2023-01-01T21:14:40.551Z,99479.78
2023-01-01T21:17:22.059Z,99473.13
2023-01-01T21:19:52.116Z,99469.72
2023-01-01T21:22:20.799Z,99474.06
2023-01-01T21:24:54.038Z,99478.47
2023-01-01T21:27:30.642Z,99476.84
2023-01-01T21:30:00.212Z,99476.00
2023-01-01T21:32:39.659Z,99481.25
2023-01-01T21:35:20.151Z,99478.81
2023-01-01T21:37:50.741Z,99481.50
2023-01-01T21:40:41.903Z,99488.47
2023-01-01T21:43:38.002Z,99488.69
2023-01-01T21:46:34.875Z,99491.38
2023-01-01T21:49:16.292Z,99494.94
2023-01-01T21:51:52.028Z,99484.78
2023-01-01T21:54:32.123Z,99497.72
2023-01-01T21:57:02.621Z,99492.59
2023-01-01T21:59:37.237Z,99493.50
2023-01-01T22:02:39.863Z,99491.19
2023-01-01T22:05:31.199Z,99487.88
2023-01-01T22:08:00.311Z,99491.38
2023-01-01T22:10:35.748Z,99489.53
2023-01-01T22:13:09.618Z,99487.19
2023-01-01T22:15:41.749Z,99480.31
2023-01-01T22:18:24.014Z,99488.94
2023-01-01T22:20:54.832Z,99476.22
2023-01-01T22:23:33.420Z,99481.34
2023-01-01T22:26:05.185Z,99472.84
2023-01-01T22:28:43.972Z,99489.97
2023-01-01T22:31:20.143Z,99480.66
2023-01-01T22:33:52.946Z,99484.03
2023-01-01T22:36:27.182Z,99478.91
2023-01-01T22:38:59.634Z,99482.38
2023-01-01T22:41:28.283Z,99478.09
2023-01-01T22:44:03.578Z,99477.06
2023-01-01T22:46:37.832Z,99472.75
2023-01-01T22:49:20.327Z,99465.75
2023-01-01T22:51:54.574Z,99469.94
2023-01-01T22:54:23.925Z,99465.53
2023-01-01T22:56:52.548Z,99469.53
2023-01-01T22:59:21.240Z,99466.72
2023-01-01T23:01:50.045Z,99467.47
2023-01-01T23:04:18.890Z,99458.72
2023-01-01T23:06:49.124Z,99462.81
2023-01-01T23:09:17.815Z,99462.63
2023-01-01T23:11:46.679Z,99459.81
2023-01-01T23:14:37.078Z,99450.25
2023-01-01T23:17:07.526Z,99460.31
2023-01-01T23:19:36.296Z,99458.44
2023-01-01T23:22:06.425Z,99455.75
2023-01-01T23:24:35.569Z,99453.91
2023-01-01T23:27:05.241Z,99451.13
2023-01-01T23:29:34.782Z,99448.44
2023-01-01T23:32:04.759Z,99455.09
2023-01-01T23:34:34.241Z,99455.94
2023-01-01T23:37:03.032Z,99448.94
2023-01-01T23:39:33.223Z,99459.78
2023-01-01T23:42:02.153Z,99445.19
2023-01-01T23:44:31.203Z,99446.72
2023-01-01T23:47:01.601Z,99443.25
2023-01-01T23:49:32.906Z,99441.47
2023-01-01T23:52:02.388Z,99431.09
2023-01-01T23:54:32.463Z,99451.50
2023-01-01T23:57:01.227Z,99438.59
2023-01-01T23:59:29.997Z,99439.41
